createdAt,value
2023-04-20T00:02:07.790Z,9.60
2023-04-20T00:04:36.699Z,9.57
2023-04-20T00:07:06.672Z,9.55
2023-04-20T00:09:34.620Z,9.50
2023-04-20T00:12:03.158Z,9.55
2023-04-20T00:14:31.390Z,9.39
2023-04-20T00:16:59.681Z,9.57
2023-04-20T00:19:28.473Z,9.57
2023-04-20T00:21:58.070Z,9.67
2023-04-20T00:24:27.379Z,9.69
2023-04-20T00:26:58.684Z,9.74
2023-04-20T00:29:27.192Z,9.76
2023-04-20T00:31:55.172Z,9.75
2023-04-20T00:34:23.652Z,9.82
2023-04-20T00:36:52.024Z,9.71
2023-04-20T00:39:20.010Z,9.87
2023-04-20T00:41:49.867Z,9.85
2023-04-20T00:44:17.845Z,9.89
2023-04-20T00:46:45.877Z,9.89
2023-04-20T00:49:13.951Z,9.97
2023-04-20T00:51:42.831Z,9.97
2023-04-20T00:54:11.716Z,9.96
2023-04-20T00:56:40.170Z,9.85
2023-04-20T00:59:09.574Z,9.84
2023-04-20T01:01:37.802Z,9.80
2023-04-20T01:04:08.042Z,9.79
2023-04-20T01:06:36.320Z,9.76
2023-04-20T01:09:05.090Z,9.89
2023-04-20T01:11:33.278Z,9.95
2023-04-20T01:14:02.279Z,9.92
2023-04-20T01:16:35.133Z,9.84
2023-04-20T01:19:03.475Z,9.93
2023-04-20T01:21:32.585Z,9.78
2023-04-20T01:24:02.318Z,9.74
2023-04-20T01:26:30.421Z,9.75
2023-04-20T01:28:59.168Z,9.76
2023-04-20T01:31:28.775Z,9.78
2023-04-20T01:33:56.955Z,9.81
2023-04-20T01:36:25.155Z,9.84
2023-04-20T01:38:56.208Z,9.78
2023-04-20T01:41:25.939Z,9.83
2023-04-20T01:43:53.887Z,9.88
2023-04-20T01:46:21.991Z,10.01
2023-04-20T01:48:49.950Z,10.33
2023-04-20T01:51:17.959Z,10.46
2023-04-20T01:53:46.079Z,10.47
2023-04-20T01:56:14.063Z,10.22
2023-04-20T01:58:43.718Z,10.20
2023-04-20T02:01:11.699Z,9.97
2023-04-20T02:03:41.118Z,9.94
2023-04-20T02:06:09.476Z,9.85
2023-04-20T02:08:37.627Z,9.79
2023-04-20T02:11:06.619Z,9.75
2023-04-20T02:13:36.512Z,9.71
2023-04-20T02:16:07.986Z,9.75
2023-04-20T02:18:37.412Z,9.50
2023-04-20T02:21:06.807Z,9.69
2023-04-20T02:23:35.381Z,9.73
2023-04-20T02:26:03.330Z,9.74
2023-04-20T02:28:31.736Z,9.46
2023-04-20T02:31:00.134Z,9.69
2023-04-20T02:33:29.820Z,9.61
2023-04-20T02:35:57.930Z,9.51
2023-04-20T02:38:26.907Z,9.63
2023-04-20T02:40:54.809Z,9.51
2023-04-20T02:43:22.954Z,9.50
2023-04-20T02:45:50.995Z,9.65
2023-04-20T02:48:19.552Z,9.74
2023-04-20T02:50:49.180Z,9.72
2023-04-20T02:53:20.176Z,9.85
2023-04-20T02:55:48.185Z,9.88
2023-04-20T02:58:17.877Z,9.98
2023-04-20T03:00:46.032Z,10.02
2023-04-20T03:03:15.474Z,10.18
2023-04-20T03:05:44.048Z,10.31
2023-04-20T03:08:13.953Z,10.42
2023-04-20T03:10:42.385Z,10.42
2023-04-20T03:13:10.915Z,10.46
2023-04-20T03:15:39.293Z,10.35
2023-04-20T03:18:07.387Z,10.25
2023-04-20T03:20:35.936Z,10.11
2023-04-20T03:23:03.959Z,10.10
2023-04-20T03:25:33.705Z,10.06
2023-04-20T03:28:01.958Z,9.39
2023-04-20T03:30:30.312Z,9.70
2023-04-20T03:32:58.249Z,9.79
2023-04-20T03:35:27.173Z,9.74
2023-04-20T03:37:55.748Z,9.65
2023-04-20T03:40:24.051Z,9.68
2023-04-20T03:42:53.692Z,9.70
2023-04-20T03:45:21.892Z,9.69
2023-04-20T03:47:51.569Z,9.63
2023-04-20T03:50:20.032Z,9.54
2023-04-20T03:52:48.026Z,9.55
2023-04-20T03:55:16.224Z,9.50
2023-04-20T03:57:44.152Z,9.45
2023-04-20T04:00:14.771Z,9.32
2023-04-20T04:02:42.884Z,9.35
2023-04-20T04:05:11.193Z,9.34
2023-04-20T04:07:40.221Z,9.32
2023-04-20T04:10:10.046Z,9.32
2023-04-20T04:12:38.047Z,9.27
2023-04-20T04:15:07.039Z,9.31
2023-04-20T04:17:36.386Z,8.52
2023-04-20T04:20:05.789Z,9.27
2023-04-20T04:22:33.719Z,9.28
2023-04-20T04:25:03.571Z,9.32
2023-04-20T04:27:34.985Z,9.20
2023-04-20T04:30:04.872Z,9.35
2023-04-20T04:32:34.640Z,9.44
2023-04-20T04:35:06.103Z,9.32
2023-04-20T04:37:34.113Z,9.42
2023-04-20T04:40:03.822Z,9.58
2023-04-20T04:42:32.755Z,9.63
2023-04-20T04:45:02.168Z,9.79
2023-04-20T04:47:31.001Z,9.93
2023-04-20T04:50:01.088Z,10.00
2023-04-20T04:52:31.304Z,10.13
2023-04-20T04:54:59.761Z,10.11
2023-04-20T04:57:28.021Z,10.08
2023-04-20T04:59:56.257Z,10.31
2023-04-20T05:02:24.584Z,10.34
2023-04-20T05:04:52.882Z,10.33
2023-04-20T05:07:21.444Z,10.32
2023-04-20T05:09:50.833Z,10.38
2023-04-20T05:12:19.673Z,10.53
2023-04-20T05:14:48.053Z,10.68
2023-04-20T05:17:16.455Z,10.71
2023-04-20T05:19:44.554Z,10.77
2023-04-20T05:22:12.845Z,10.65
2023-04-20T05:24:41.324Z,10.60
2023-04-20T05:27:12.189Z,10.55
2023-04-20T05:29:40.528Z,10.59
2023-04-20T05:32:08.605Z,10.77
2023-04-20T05:34:36.755Z,10.82
2023-04-20T05:37:06.329Z,10.78
2023-04-20T05:39:34.322Z,10.68
2023-04-20T05:42:02.401Z,10.59
2023-04-20T05:44:34.214Z,10.64
2023-04-20T05:47:02.248Z,10.72
2023-04-20T05:49:30.232Z,10.77
2023-04-20T05:51:58.197Z,10.85
2023-04-20T05:54:28.488Z,10.78
2023-04-20T05:56:58.319Z,10.73
2023-04-20T05:59:27.503Z,10.86
2023-04-20T06:01:57.021Z,11.26
2023-04-20T06:04:26.230Z,11.35
2023-04-20T06:06:54.421Z,11.63
2023-04-20T06:09:23.621Z,11.57
2023-04-20T06:11:51.608Z,11.44
2023-04-20T06:14:19.995Z,11.44
2023-04-20T06:16:48.482Z,11.41
2023-04-20T06:19:18.184Z,11.26
2023-04-20T06:21:46.674Z,11.03
2023-04-20T06:24:15.909Z,10.95
2023-04-20T06:26:44.262Z,11.02
2023-04-20T06:29:12.291Z,11.19
2023-04-20T06:31:40.304Z,11.28
2023-04-20T06:34:08.378Z,11.63
2023-04-20T06:36:38.773Z,11.55
2023-04-20T06:39:09.581Z,11.51
2023-04-20T06:41:38.325Z,11.64
2023-04-20T06:44:06.640Z,11.63
2023-04-20T06:46:34.606Z,11.57
2023-04-20T06:49:03.472Z,11.37
2023-04-20T06:51:33.381Z,11.30
2023-04-20T06:54:03.148Z,11.06
2023-04-20T06:56:31.076Z,10.91
2023-04-20T06:58:59.483Z,10.93
2023-04-20T07:01:27.493Z,11.08
2023-04-20T07:03:55.741Z,11.22
2023-04-20T07:06:25.285Z,11.42
2023-04-20T07:08:53.539Z,11.44
2023-04-20T07:11:23.063Z,11.36
2023-04-20T07:13:51.334Z,11.19
2023-04-20T07:16:19.403Z,11.68
2023-04-20T07:18:47.481Z,11.90
2023-04-20T07:21:16.364Z,12.13
2023-04-20T07:23:45.235Z,11.61
2023-04-20T07:26:13.720Z,11.75
2023-04-20T07:28:43.259Z,11.71
2023-04-20T07:31:12.481Z,11.94
2023-04-20T07:33:40.688Z,12.08
2023-04-20T07:36:09.307Z,12.32
2023-04-20T07:38:37.705Z,12.44
2023-04-20T07:41:05.721Z,12.44
2023-04-20T07:43:33.922Z,12.52
2023-04-20T07:46:03.665Z,12.70
2023-04-20T07:48:32.003Z,12.79
2023-04-20T07:50:59.978Z,12.92
2023-04-20T07:53:28.356Z,12.84
2023-04-20T07:55:59.293Z,13.01
2023-04-20T07:58:27.702Z,13.29
2023-04-20T08:00:55.869Z,13.70
2023-04-20T08:03:27.634Z,13.68
2023-04-20T08:05:55.905Z,13.59
2023-04-20T08:08:24.378Z,13.53
2023-04-20T08:10:52.421Z,13.67
2023-04-20T08:13:21.187Z,13.89
2023-04-20T08:15:49.472Z,13.95
2023-04-20T08:18:18.099Z,13.91
2023-04-20T08:20:48.126Z,13.77
2023-04-20T08:23:16.223Z,13.50
2023-04-20T08:25:44.455Z,13.56
2023-04-20T08:28:24.318Z,13.50
2023-04-20T08:31:00.830Z,13.46
2023-04-20T08:33:28.952Z,13.60
2023-04-20T08:35:58.307Z,13.82
2023-04-20T08:38:33.671Z,13.52
2023-04-20T08:41:02.487Z,13.31
2023-04-20T08:43:32.638Z,13.25
2023-04-20T08:46:03.129Z,13.41
2023-04-20T08:48:36.442Z,13.38
2023-04-20T08:51:07.409Z,13.47
2023-04-20T08:53:35.549Z,13.80
2023-04-20T08:56:03.839Z,13.82
2023-04-20T08:58:33.435Z,14.12
2023-04-20T09:01:01.859Z,13.78
2023-04-20T09:03:35.711Z,14.13
2023-04-20T09:06:06.588Z,14.39
2023-04-20T09:08:36.787Z,14.46
2023-04-20T09:11:04.662Z,14.32
2023-04-20T09:13:32.647Z,14.34
2023-04-20T09:16:11.616Z,14.56
2023-04-20T09:18:39.799Z,14.72
2023-04-20T09:21:12.593Z,14.60
2023-04-20T09:23:41.906Z,14.87
2023-04-20T09:26:20.883Z,14.81
2023-04-20T09:28:48.820Z,15.12
2023-04-20T09:31:20.535Z,15.10
2023-04-20T09:33:57.892Z,14.80
2023-04-20T09:36:38.147Z,14.93
2023-04-20T09:39:09.796Z,15.00
2023-04-20T09:41:38.751Z,15.06
2023-04-20T09:44:08.587Z,14.86
2023-04-20T09:46:37.531Z,15.13
2023-04-20T09:49:07.817Z,14.98
2023-04-20T09:51:38.621Z,15.69
2023-04-20T09:54:07.974Z,15.68
2023-04-20T09:56:36.888Z,15.72
2023-04-20T09:59:05.088Z,15.79
2023-04-20T10:01:36.101Z,15.85
2023-04-20T10:04:11.294Z,15.85
2023-04-20T10:06:41.787Z,16.00
2023-04-20T10:09:11.215Z,16.11
2023-04-20T10:11:52.592Z,16.14
2023-04-20T10:14:27.422Z,15.88
2023-04-20T10:17:03.307Z,16.02
2023-04-20T10:19:41.969Z,16.08
2023-04-20T10:22:12.664Z,16.07
2023-04-20T10:24:40.610Z,16.06
2023-04-20T10:27:18.649Z,16.41
2023-04-20T10:29:47.325Z,16.68
2023-04-20T10:32:24.267Z,17.05
2023-04-20T10:35:02.781Z,17.69
2023-04-20T10:37:32.918Z,17.48
2023-04-20T10:40:01.614Z,17.16
2023-04-20T10:42:30.872Z,16.76
2023-04-20T10:44:59.269Z,16.95
2023-04-20T10:47:31.910Z,16.84
2023-04-20T10:50:11.114Z,17.11
2023-04-20T10:52:42.904Z,17.16
2023-04-20T10:55:20.838Z,17.30
2023-04-20T10:57:48.881Z,17.13
2023-04-20T11:00:18.900Z,17.19
2023-04-20T11:02:51.406Z,17.25
2023-04-20T11:05:20.434Z,17.10
2023-04-20T11:07:53.001Z,17.09
2023-04-20T11:10:21.397Z,17.65
2023-04-20T11:12:49.484Z,17.57
2023-04-20T11:15:17.868Z,17.70
2023-04-20T11:17:47.059Z,18.19
2023-04-20T11:20:17.770Z,17.97
2023-04-20T11:22:45.984Z,18.05
2023-04-20T11:25:15.681Z,17.79
2023-04-20T11:27:43.834Z,17.60
2023-04-20T11:30:12.642Z,17.64
2023-04-20T11:32:40.915Z,17.64
2023-04-20T11:35:12.160Z,17.57
2023-04-20T11:37:48.018Z,17.62
2023-04-20T11:40:17.681Z,17.52
2023-04-20T11:42:46.341Z,17.50
2023-04-20T11:45:16.004Z,17.52
2023-04-20T11:47:45.791Z,17.44
2023-04-20T11:50:14.506Z,17.22
2023-04-20T11:52:42.533Z,17.21
2023-04-20T11:55:11.427Z,17.17
2023-04-20T11:57:40.817Z,17.16
2023-04-20T12:00:10.171Z,17.15
2023-04-20T12:02:38.292Z,17.04
2023-04-20T12:05:08.887Z,16.68
2023-04-20T12:07:37.014Z,16.46
2023-04-20T12:10:05.481Z,16.64
2023-04-20T12:12:34.075Z,16.80
2023-04-20T12:15:03.350Z,16.50
2023-04-20T12:17:31.655Z,16.38
2023-04-20T12:19:59.545Z,16.18
2023-04-20T12:22:27.634Z,15.77
2023-04-20T12:24:55.721Z,15.33
2023-04-20T12:27:23.734Z,15.37
2023-04-20T12:29:51.644Z,15.48
2023-04-20T12:32:21.205Z,15.00
2023-04-20T12:34:49.287Z,14.18
2023-04-20T12:37:17.934Z,13.35
2023-04-20T12:39:46.490Z,12.73
2023-04-20T12:42:14.558Z,12.25
2023-04-20T12:44:44.404Z,12.08
2023-04-20T12:47:13.750Z,12.11
2023-04-20T12:49:43.911Z,12.17
2023-04-20T12:52:12.130Z,12.02
2023-04-20T12:54:42.110Z,12.78
2023-04-20T12:57:11.371Z,12.93
2023-04-20T12:59:39.361Z,13.21
2023-04-20T13:02:07.838Z,13.14
2023-04-20T13:04:36.486Z,13.18
2023-04-20T13:07:07.132Z,12.80
2023-04-20T13:09:35.151Z,13.09
2023-04-20T13:12:03.260Z,12.98
2023-04-20T13:14:31.239Z,12.86
2023-04-20T13:17:02.289Z,12.56
2023-04-20T13:19:30.790Z,12.31
2023-04-20T13:21:59.519Z,12.27
2023-04-20T13:24:28.980Z,12.34
2023-04-20T13:26:57.871Z,12.46
2023-04-20T13:29:26.797Z,12.57
2023-04-20T13:31:54.901Z,12.76
2023-04-20T13:34:23.225Z,12.82
2023-04-20T13:36:52.117Z,12.97
2023-04-20T13:39:22.220Z,12.87
2023-04-20T13:41:53.263Z,12.89
2023-04-20T13:44:21.418Z,12.78
2023-04-20T13:46:49.947Z,13.11
2023-04-20T13:49:18.208Z,13.17
2023-04-20T13:51:46.434Z,13.23
2023-04-20T13:54:14.369Z,13.21
2023-04-20T13:56:42.360Z,13.16
2023-04-20T13:59:11.711Z,13.18
2023-04-20T14:01:40.172Z,13.16
2023-04-20T14:04:10.109Z,13.29
2023-04-20T14:06:38.174Z,13.37
2023-04-20T14:09:06.340Z,13.47
2023-04-20T14:11:34.403Z,13.47
2023-04-20T14:14:02.742Z,13.63
2023-04-20T14:16:32.360Z,13.69
2023-04-20T14:19:01.825Z,13.80
2023-04-20T14:21:31.394Z,13.92
2023-04-20T14:23:59.662Z,14.03
2023-04-20T14:26:28.501Z,13.97
2023-04-20T14:28:56.470Z,14.02
2023-04-20T14:31:24.720Z,14.07
2023-04-20T14:33:54.190Z,14.20
2023-04-20T14:36:22.254Z,14.18
2023-04-20T14:38:50.685Z,14.16
2023-04-20T14:41:18.610Z,14.07
2023-04-20T14:43:46.882Z,14.01
2023-04-20T14:46:15.205Z,14.18
2023-04-20T14:48:46.333Z,14.48
2023-04-20T14:51:16.399Z,14.68
2023-04-20T14:53:44.326Z,14.76
2023-04-20T14:56:12.901Z,14.47
2023-04-20T14:58:42.561Z,14.34
2023-04-20T15:01:11.310Z,14.24
2023-04-20T15:03:39.383Z,14.04
2023-04-20T15:06:08.633Z,13.82
2023-04-20T15:08:37.905Z,13.66
2023-04-20T15:11:05.944Z,13.61
2023-04-20T15:13:34.235Z,13.63
2023-04-20T15:16:02.531Z,13.69
2023-04-20T15:18:30.547Z,13.67
2023-04-20T15:20:58.982Z,13.68
2023-04-20T15:23:26.876Z,13.71
2023-04-20T15:25:56.325Z,13.70
2023-04-20T15:28:24.546Z,13.73
2023-04-20T15:30:54.215Z,13.79
2023-04-20T15:33:22.498Z,14.01
2023-04-20T15:35:51.805Z,14.22
2023-04-20T15:38:20.063Z,14.27
2023-04-20T15:40:47.973Z,14.18
2023-04-20T15:43:17.479Z,14.52
2023-04-20T15:45:45.550Z,14.56
2023-04-20T15:48:14.116Z,14.66
2023-04-20T15:50:42.244Z,14.73
2023-04-20T15:53:10.267Z,14.91
2023-04-20T15:55:39.702Z,14.66
2023-04-20T15:58:07.939Z,14.73
2023-04-20T16:00:37.426Z,14.74
2023-04-20T16:03:05.872Z,14.93
2023-04-20T16:05:34.395Z,14.85
2023-04-20T16:08:02.732Z,14.82
2023-04-20T16:10:30.940Z,14.96
2023-04-20T16:12:59.076Z,14.83
2023-04-20T16:15:27.151Z,14.86
2023-04-20T16:17:56.717Z,14.86
2023-04-20T16:20:24.701Z,15.10
2023-04-20T16:22:52.711Z,15.00
2023-04-20T16:25:24.221Z,14.50
2023-04-20T16:27:52.667Z,14.73
2023-04-20T16:30:21.106Z,14.90
2023-04-20T16:32:50.065Z,14.95
2023-04-20T16:35:19.427Z,14.95
2023-04-20T16:37:49.030Z,14.74
2023-04-20T16:40:17.177Z,14.78
2023-04-20T16:42:45.047Z,14.96
2023-04-20T16:45:13.477Z,14.65
2023-04-20T16:47:41.639Z,14.64
2023-04-20T16:50:11.914Z,14.62
2023-04-20T16:52:41.276Z,14.72
2023-04-20T16:55:10.390Z,14.66
2023-04-20T16:57:38.275Z,14.58
2023-04-20T17:00:07.826Z,14.55
2023-04-20T17:02:37.242Z,14.51
2023-04-20T17:05:05.954Z,14.41
2023-04-20T17:07:36.427Z,14.42
2023-04-20T17:10:07.331Z,14.72
2023-04-20T17:12:35.901Z,14.75
2023-04-20T17:15:04.041Z,14.81
2023-04-20T17:17:32.894Z,14.86
2023-04-20T17:20:00.920Z,14.76
2023-04-20T17:22:29.448Z,14.67
2023-04-20T17:24:57.693Z,14.49
2023-04-20T17:27:27.119Z,14.46
2023-04-20T17:29:56.027Z,14.43
2023-04-20T17:32:25.295Z,14.54
2023-04-20T17:34:53.993Z,14.50
2023-04-20T17:37:23.505Z,14.33
2023-04-20T17:39:51.907Z,14.40
2023-04-20T17:42:22.125Z,14.30
2023-04-20T17:44:52.403Z,14.47
2023-04-20T17:47:20.323Z,14.45
2023-04-20T17:49:48.551Z,14.34
2023-04-20T17:52:19.771Z,14.38
2023-04-20T17:54:47.823Z,14.40
2023-04-20T17:57:15.697Z,14.55
2023-04-20T17:59:43.779Z,14.47
2023-04-20T18:02:14.178Z,14.51
2023-04-20T18:04:42.530Z,14.57
2023-04-20T18:07:13.328Z,14.37
2023-04-20T18:09:41.455Z,14.18
2023-04-20T18:12:10.985Z,14.12
2023-04-20T18:14:38.967Z,13.95
2023-04-20T18:17:06.995Z,14.03
2023-04-20T18:19:36.671Z,13.86
2023-04-20T18:22:04.705Z,13.42
2023-04-20T18:24:32.673Z,13.68
2023-04-20T18:27:01.322Z,13.64
2023-04-20T18:29:30.121Z,13.62
2023-04-20T18:32:01.402Z,13.54
2023-04-20T18:34:31.229Z,13.09
2023-04-20T18:37:01.185Z,13.44
2023-04-20T18:39:29.889Z,13.35
2023-04-20T18:41:59.100Z,13.37
2023-04-20T18:44:28.436Z,13.34
2023-04-20T18:46:56.592Z,13.27
2023-04-20T18:49:24.625Z,13.21
2023-04-20T18:51:52.649Z,13.11
2023-04-20T18:54:21.977Z,12.93
2023-04-20T18:56:50.587Z,12.71
2023-04-20T18:59:18.791Z,12.65
2023-04-20T19:01:46.714Z,12.55
2023-04-20T19:04:17.899Z,12.16
2023-04-20T19:06:46.896Z,12.47
2023-04-20T19:09:14.950Z,12.51
2023-04-20T19:11:44.432Z,12.44
2023-04-20T19:14:13.206Z,12.46
2023-04-20T19:16:41.400Z,12.29
2023-04-20T19:19:10.092Z,12.45
2023-04-20T19:21:38.180Z,12.44
2023-04-20T19:24:07.597Z,12.35
2023-04-20T19:26:36.870Z,12.43
2023-04-20T19:29:06.248Z,12.46
2023-04-20T19:31:37.869Z,12.47
2023-04-20T19:34:06.026Z,12.18
2023-04-20T19:36:34.740Z,12.26
2023-04-20T19:39:03.109Z,12.37
2023-04-20T19:41:31.373Z,12.39
2023-04-20T19:44:01.170Z,12.45
2023-04-20T19:46:31.849Z,12.48
2023-04-20T19:49:00.768Z,12.55
2023-04-20T19:51:29.050Z,12.44
2023-04-20T19:54:00.150Z,12.43
2023-04-20T19:56:28.535Z,12.39
2023-04-20T19:58:56.484Z,12.30
2023-04-20T20:01:24.353Z,12.24
2023-04-20T20:03:54.149Z,12.14
2023-04-20T20:06:23.707Z,12.11
2023-04-20T20:08:51.720Z,12.01
2023-04-20T20:11:19.797Z,11.89
2023-04-20T20:13:47.709Z,11.81
2023-04-20T20:16:16.285Z,11.73
2023-04-20T20:18:45.082Z,11.66
2023-04-20T20:21:14.494Z,11.60
2023-04-20T20:23:42.698Z,11.56
2023-04-20T20:26:10.813Z,11.55
2023-04-20T20:28:39.226Z,11.56
2023-04-20T20:31:07.511Z,11.58
2023-04-20T20:33:35.760Z,11.52
2023-04-20T20:36:04.443Z,11.42
2023-04-20T20:38:34.762Z,11.28
2023-04-20T20:41:02.929Z,11.37
2023-04-20T20:43:32.766Z,11.25
2023-04-20T20:46:00.833Z,11.32
2023-04-20T20:48:28.867Z,11.26
2023-04-20T20:50:56.747Z,11.31
2023-04-20T20:53:25.004Z,11.25
2023-04-20T20:55:54.812Z,11.22
2023-04-20T20:58:23.130Z,11.30
2023-04-20T21:00:51.347Z,11.27
2023-04-20T21:03:19.691Z,11.24
2023-04-20T21:05:47.964Z,11.13
2023-04-20T21:08:17.387Z,11.11
2023-04-20T21:10:45.474Z,11.05
2023-04-20T21:13:15.854Z,11.12
2023-04-20T21:15:43.770Z,11.16
2023-04-20T21:18:12.001Z,11.20
2023-04-20T21:20:40.067Z,11.14
2023-04-20T21:23:07.994Z,11.16
2023-04-20T21:25:36.147Z,11.08
2023-04-20T21:28:04.422Z,11.10
2023-04-20T21:30:34.155Z,11.04
2023-04-20T21:33:02.324Z,11.06
2023-04-20T21:35:31.145Z,11.03
2023-04-20T21:37:59.095Z,11.01
2023-04-20T21:40:27.092Z,11.13
2023-04-20T21:42:55.496Z,11.15
2023-04-20T21:45:23.633Z,11.18
2023-04-20T21:47:54.580Z,11.14
2023-04-20T21:50:27.186Z,11.18
2023-04-20T21:52:55.674Z,11.09
2023-04-20T21:55:23.579Z,11.07
2023-04-20T21:57:51.671Z,11.15
2023-04-20T22:00:19.892Z,11.02
2023-04-20T22:02:50.195Z,10.97
2023-04-20T22:05:20.127Z,10.95
2023-04-20T22:07:48.052Z,10.90
2023-04-20T22:10:16.269Z,10.87
2023-04-20T22:12:46.198Z,10.67
2023-04-20T22:15:16.825Z,10.75
2023-04-20T22:17:46.589Z,10.44
2023-04-20T22:20:16.974Z,10.77
2023-04-20T22:22:46.902Z,10.61
2023-04-20T22:25:14.881Z,10.50
2023-04-20T22:27:42.847Z,10.41
2023-04-20T22:30:11.358Z,10.35
2023-04-20T22:32:39.381Z,10.27
2023-04-20T22:35:08.105Z,10.20
2023-04-20T22:37:36.320Z,10.10
2023-04-20T22:40:07.645Z,10.03
2023-04-20T22:42:36.089Z,9.95
2023-04-20T22:45:06.149Z,9.90
2023-04-20T22:47:34.162Z,9.92
2023-04-20T22:50:02.159Z,9.86
2023-04-20T22:52:30.280Z,9.80
2023-04-20T22:54:58.115Z,9.71
2023-04-20T22:57:27.413Z,9.75
2023-04-20T22:59:55.474Z,9.49
2023-04-20T23:02:23.573Z,9.45
2023-04-20T23:04:51.880Z,9.43
2023-04-20T23:07:21.433Z,9.26
2023-04-20T23:09:49.333Z,9.29
2023-04-20T23:12:17.594Z,9.26
2023-04-20T23:14:47.559Z,9.16
2023-04-20T23:17:15.720Z,9.36
2023-04-20T23:19:43.798Z,9.35
2023-04-20T23:22:12.046Z,9.14
2023-04-20T23:24:40.280Z,9.16
2023-04-20T23:27:08.186Z,9.12
2023-04-20T23:29:36.089Z,9.20
2023-04-20T23:32:06.201Z,9.14
2023-04-20T23:34:34.317Z,9.12
2023-04-20T23:37:02.428Z,9.20
2023-04-20T23:39:30.863Z,9.13
2023-04-20T23:41:58.889Z,9.02
2023-04-20T23:44:27.064Z,9.17
2023-04-20T23:46:55.125Z,9.23
2023-04-20T23:49:24.441Z,9.15
2023-04-20T23:51:52.392Z,8.95
2023-04-20T23:54:20.355Z,9.05
2023-04-20T23:56:48.566Z,8.97
2023-04-20T23:59:17.122Z,8.98
